Time;durP1;ratioP1;P1;durP2;ratioP2;P2;SDS_P1;SDS_P2;PMS_P1;PMS_P2;Temp;Humidity;BMP_temperature;BMP_pressure;BME280_temperature;BME280_humidity;BME280_pressure;Samples;Min_cycle;Max_cycle;Signal;HPM_P1;HPM_P2
2022/07/23 00:01:59;;;;;;;32.87;18.87;;;17.80;99.90;;;;;;5054137;28;20447;-75
2022/07/23 00:04:24;;;;;;;33.88;20.58;;;17.70;99.90;;;;;;5053744;28;20451;-72
2022/07/23 00:06:50;;;;;;;40.03;20.70;;;17.70;99.90;;;;;;5053809;28;20438;-73
2022/07/23 00:09:17;;;;;;;37.72;21.15;;;17.70;99.90;;;;;;5053581;28;20404;-74
2022/07/23 00:11:43;;;;;;;36.28;21.02;;;17.80;99.90;;;;;;5053631;28;20456;-73
2022/07/23 00:14:08;;;;;;;36.00;20.57;;;17.80;99.80;;;;;;5052540;28;20483;-73
2022/07/23 00:16:34;;;;;;;40.30;22.17;;;17.80;96.70;;;;;;5053817;28;20408;-74
2022/07/23 00:19:02;;;;;;;38.37;22.90;;;17.60;99.90;;;;;;5053646;28;20852;-74
2022/07/23 00:21:27;;;;;;;33.55;20.13;;;17.60;99.90;;;;;;5053913;28;20386;-73
2022/07/23 00:23:53;;;;;;;37.95;20.75;;;17.50;99.90;;;;;;5053954;28;20459;-73
2022/07/23 00:26:18;;;;;;;31.30;19.40;;;17.60;99.90;;;;;;5054806;28;20866;-74
2022/07/23 00:28:44;;;;;;;30.60;19.70;;;17.60;99.90;;;;;;5055970;28;20373;-73
2022/07/23 00:31:10;;;;;;;36.47;22.13;;;17.50;99.90;;;;;;5054244;28;20832;-74
2022/07/23 00:33:35;;;;;;;32.57;20.20;;;17.50;99.90;;;;;;5054596;28;20389;-73
2022/07/23 00:36:01;;;;;;;33.53;20.53;;;17.50;99.90;;;;;;5054082;28;20413;-73
2022/07/23 00:38:26;;;;;;;33.92;20.00;;;17.50;99.90;;;;;;5053641;28;20397;-74
2022/07/23 00:40:52;;;;;;;35.10;19.77;;;17.50;99.90;;;;;;5054318;28;20396;-73
2022/07/23 00:43:20;;;;;;;38.53;21.23;;;17.40;99.90;;;;;;5052921;28;20463;-73
2022/07/23 00:45:46;;;;;;;43.50;22.02;;;17.40;99.90;;;;;;5056920;28;20771;-73
2022/07/23 00:48:11;;;;;;;36.72;22.00;;;17.30;99.90;;;;;;5055340;28;20390;-73
2022/07/23 00:50:37;;;;;;;36.67;23.17;;;17.30;99.90;;;;;;5055316;28;20381;-71
2022/07/23 00:53:03;;;;;;;34.70;22.07;;;17.30;99.90;;;;;;5054417;28;20449;-73
2022/07/23 00:55:29;;;;;;;33.97;20.13;;;17.30;99.90;;;;;;5053746;28;20475;-72
2022/07/23 00:57:55;;;;;;;38.53;21.53;;;17.30;99.90;;;;;;5053086;28;20377;-74
2022/07/23 01:00:21;;;;;;;35.95;21.20;;;17.40;99.90;;;;;;5052527;28;20389;-74
2022/07/23 01:02:47;;;;;;;32.42;20.40;;;17.70;99.90;;;;;;5052240;28;20397;-73
2022/07/23 01:05:12;;;;;;;35.13;19.75;;;17.60;99.90;;;;;;5052542;28;20415;-73
2022/07/23 01:07:38;;;;;;;31.40;20.10;;;17.80;99.90;;;;;;5052532;28;20465;-73
2022/07/23 01:10:30;;;;;;;33.20;19.37;;;17.90;99.00;;;;;;5052516;28;20431;-73
2022/07/23 01:12:50;;;;;;;31.50;19.70;;;18.00;97.90;;;;;;5052154;28;20424;-74
2022/07/23 01:15:16;;;;;;;30.83;19.83;;;17.90;99.40;;;;;;5052439;28;20470;-72
2022/07/23 01:17:41;;;;;;;35.05;20.40;;;17.90;99.90;;;;;;5052358;28;20472;-73
2022/07/23 01:20:07;;;;;;;39.67;18.80;;;17.90;99.90;;;;;;5052784;28;20385;-73
2022/07/23 01:22:33;;;;;;;40.90;21.40;;;17.90;99.90;;;;;;5052277;28;20413;-73
2022/07/23 01:24:59;;;;;;;46.40;21.53;;;17.80;99.90;;;;;;5052312;28;20431;-73
2022/07/23 01:27:24;;;;;;;37.07;21.10;;;17.80;99.90;;;;;;5052103;28;20389;-74
2022/07/23 01:29:50;;;;;;;34.80;20.85;;;17.80;99.90;;;;;;5051889;28;20400;-73
2022/07/23 01:32:15;;;;;;;37.87;21.17;;;17.80;99.90;;;;;;5050574;28;20388;-74
2022/07/23 01:34:41;;;;;;;36.87;21.60;;;17.80;99.90;;;;;;5052523;28;20381;-75
2022/07/23 01:37:06;;;;;;;35.03;21.73;;;17.80;99.90;;;;;;5051739;28;20400;-74
2022/07/23 01:39:32;;;;;;;42.13;24.27;;;17.80;99.90;;;;;;5052121;28;20400;-74
2022/07/23 01:41:58;;;;;;;42.17;22.73;;;17.70;99.90;;;;;;5051616;28;20524;-74
2022/07/23 01:44:23;;;;;;;39.20;22.80;;;17.60;99.90;;;;;;5051673;28;20413;-74
2022/07/23 01:46:49;;;;;;;40.72;23.65;;;17.50;99.90;;;;;;5051682;28;20388;-75
2022/07/23 01:49:15;;;;;;;40.85;24.20;;;17.30;99.90;;;;;;5068278;22;20429;-76
2022/07/23 01:51:59;;;;;;;40.80;23.70;;;17.30;99.90;;;;;;5063217;28;20745;-76
2022/07/23 01:54:31;;;;;;;40.40;23.20;;;17.40;99.90;;;;;;5065989;28;20377;-76
2022/07/23 01:56:57;;;;;;;38.60;22.33;;;17.40;99.90;;;;;;5053761;28;20435;-75
2022/07/23 01:59:23;;;;;;;37.90;21.83;;;17.40;99.90;;;;;;5053823;28;20393;-75
2022/07/23 02:01:53;;;;;;;40.13;22.17;;;17.40;99.90;;;;;;5051068;28;20392;-74
2022/07/23 02:04:22;;;;;;;36.53;21.00;;;17.40;99.90;;;;;;5051666;28;20390;-75
2022/07/23 02:06:48;;;;;;;42.88;21.75;;;17.40;99.90;;;;;;5051263;28;20374;-76
2022/07/23 02:09:15;;;;;;;35.03;21.55;;;17.30;99.90;;;;;;5051325;28;20435;-76
2022/07/23 02:11:41;;;;;;;36.50;18.98;;;17.30;99.90;;;;;;5051207;28;20397;-76
2022/07/23 02:14:07;;;;;;;32.77;19.77;;;17.20;99.90;;;;;;5051291;28;20463;-76
2022/07/23 02:16:32;;;;;;;35.60;19.60;;;17.20;99.90;;;;;;5051539;28;20409;-76
2022/07/23 02:18:58;;;;;;;33.73;21.00;;;17.10;99.90;;;;;;5050903;28;20877;-77
2022/07/23 02:21:23;;;;;;;30.43;19.70;;;17.00;99.90;;;;;;5050826;28;20438;-77
2022/07/23 02:23:49;;;;;;;35.00;19.60;;;17.10;99.90;;;;;;5050983;28;20497;-76
2022/07/23 02:26:15;;;;;;;34.90;21.13;;;17.10;99.90;;;;;;5050900;28;20451;-76
2022/07/23 02:28:40;;;;;;;32.10;20.75;;;17.20;99.90;;;;;;5051406;28;20388;-75
2022/07/23 02:31:06;;;;;;;32.60;18.90;;;17.20;99.90;;;;;;5050109;28;20412;-77
2022/07/23 02:33:32;;;;;;;34.40;19.37;;;17.30;99.90;;;;;;5060169;28;20385;-73
2022/07/23 02:35:58;;;;;;;34.38;20.05;;;17.30;99.90;;;;;;5057022;28;20444;-76
2022/07/23 02:38:24;;;;;;;39.85;21.52;;;17.30;99.90;;;;;;5052666;28;20396;-75
2022/07/23 02:40:50;;;;;;;34.10;20.20;;;17.20;99.90;;;;;;5053246;28;20389;-78
2022/07/23 02:43:15;;;;;;;37.67;21.25;;;17.20;99.90;;;;;;5053018;28;20957;-75
2022/07/23 02:45:41;;;;;;;30.77;19.90;;;17.10;99.90;;;;;;5054253;28;20421;-76
2022/07/23 02:48:06;;;;;;;39.03;22.20;;;17.00;99.90;;;;;;5056445;28;20771;-77
2022/07/23 02:50:32;;;;;;;38.15;22.60;;;16.70;99.90;;;;;;5059094;28;20403;-76
2022/07/23 02:52:57;;;;;;;36.42;23.05;;;16.70;99.90;;;;;;5055377;28;20393;-74
2022/07/23 02:55:23;;;;;;;46.53;23.97;;;16.60;99.90;;;;;;5062425;28;20403;-75
2022/07/23 02:57:48;;;;;;;36.70;20.80;;;16.50;99.90;;;;;;5063358;28;20391;-76
2022/07/23 03:00:14;;;;;;;44.58;24.45;;;16.30;99.90;;;;;;5063903;28;20377;-74
2022/07/23 03:02:40;;;;;;;40.60;22.50;;;16.20;99.90;;;;;;5062404;28;20401;-74
2022/07/23 03:05:06;;;;;;;40.03;23.70;;;16.20;99.90;;;;;;5061267;28;20400;-76
2022/07/23 03:07:31;;;;;;;36.33;23.17;;;16.10;99.90;;;;;;5050826;28;20388;-75
2022/07/23 03:09:57;;;;;;;33.00;21.30;;;16.20;99.90;;;;;;5050885;28;20381;-75
2022/07/23 03:12:23;;;;;;;42.20;24.00;;;16.10;99.90;;;;;;5050328;28;20443;-76
2022/07/23 03:14:48;;;;;;;39.53;23.80;;;16.20;99.90;;;;;;5050749;28;21030;-77
2022/07/23 03:17:14;;;;;;;42.65;23.63;;;16.10;99.90;;;;;;5050463;28;20424;-76
2022/07/23 03:19:39;;;;;;;45.75;24.20;;;16.00;99.90;;;;;;5050524;28;20431;-76
2022/07/23 03:22:05;;;;;;;45.67;24.70;;;16.00;99.90;;;;;;5050280;28;20975;-76
2022/07/23 03:27:15;;;;;;;48.00;25.60;;;16.00;99.90;;;;;;5050483;28;20515;-76
2022/07/23 03:29:41;;;;;;;42.38;23.67;;;16.00;99.90;;;;;;5050495;28;20868;-77
2022/07/23 03:32:06;;;;;;;46.60;24.30;;;16.00;99.90;;;;;;5050147;28;20388;-77
2022/07/23 03:34:32;;;;;;;43.37;24.57;;;16.00;99.90;;;;;;5050362;28;20424;-76
2022/07/23 03:36:58;;;;;;;36.90;24.20;;;16.10;99.90;;;;;;5050255;28;20431;-77
2022/07/23 03:39:23;;;;;;;44.10;25.20;;;16.10;99.90;;;;;;5050332;28;20424;-76
2022/07/23 03:41:49;;;;;;;39.33;23.03;;;16.20;99.90;;;;;;5050110;28;20416;-76
2022/07/23 03:44:14;;;;;;;40.00;22.83;;;16.20;99.90;;;;;;5050261;28;20416;-76
2022/07/23 03:46:40;;;;;;;40.90;23.85;;;16.20;99.90;;;;;;5050306;28;20374;-77
2022/07/23 03:49:05;;;;;;;41.47;23.80;;;16.10;99.90;;;;;;5049963;28;20385;-76
2022/07/23 03:51:32;;;;;;;39.97;24.10;;;16.10;99.90;;;;;;5050003;28;20530;-76
2022/07/23 03:53:57;;;;;;;37.60;22.92;;;16.10;99.90;;;;;;5050239;28;20865;-76
2022/07/23 03:56:23;;;;;;;45.70;24.57;;;16.10;99.90;;;;;;5050284;28;20443;-76
2022/07/23 03:58:48;;;;;;;36.93;23.30;;;16.00;99.90;;;;;;5050084;28;20447;-76
2022/07/23 04:01:14;;;;;;;42.80;23.93;;;15.90;99.90;;;;;;5052502;28;20858;-74
2022/07/23 04:03:40;;;;;;;40.67;23.45;;;15.90;99.90;;;;;;5053612;28;20415;-76
2022/07/23 04:06:06;;;;;;;38.47;23.67;;;15.90;99.90;;;;;;5053671;28;20428;-75
2022/07/23 04:08:31;;;;;;;38.17;23.83;;;15.90;99.90;;;;;;5053588;28;20485;-75
2022/07/23 04:10:57;;;;;;;40.38;24.30;;;16.00;99.90;;;;;;5053645;28;20468;-76
2022/07/23 04:13:23;;;;;;;39.60;22.70;;;16.10;99.90;;;;;;5053551;28;20389;-75
2022/07/23 04:15:49;;;;;;;32.47;21.07;;;16.10;99.90;;;;;;5053525;28;20385;-76
2022/07/23 04:18:17;;;;;;;35.45;21.48;;;16.20;99.90;;;;;;5053239;28;20416;-76
2022/07/23 04:20:45;;;;;;;38.05;22.58;;;16.20;99.90;;;;;;5053425;28;20995;-75
2022/07/23 04:23:12;;;;;;;35.10;21.42;;;16.10;99.90;;;;;;5053005;28;20428;-77
2022/07/23 04:25:37;;;;;;;37.30;21.13;;;16.10;99.90;;;;;;5053247;28;20409;-75
2022/07/23 04:28:03;;;;;;;41.70;21.20;;;16.10;99.90;;;;;;5053123;28;20471;-76
2022/07/23 04:30:29;;;;;;;34.97;20.10;;;16.20;99.90;;;;;;5053136;28;20382;-76
2022/07/23 04:32:55;;;;;;;36.10;22.23;;;16.20;99.90;;;;;;5052929;28;20392;-76
2022/07/23 04:35:20;;;;;;;31.57;19.80;;;16.10;99.90;;;;;;5053112;28;20389;-75
2022/07/23 04:37:46;;;;;;;33.67;21.57;;;16.10;99.90;;;;;;5053089;28;20439;-76
2022/07/23 04:40:13;;;;;;;31.00;19.07;;;16.30;99.90;;;;;;5052992;28;20476;-76
2022/07/23 04:42:38;;;;;;;29.00;19.08;;;16.40;99.90;;;;;;5053099;28;20397;-75
2022/07/23 04:45:05;;;;;;;31.70;18.55;;;16.50;99.90;;;;;;5052870;28;20443;-76
2022/07/23 04:47:30;;;;;;;30.95;18.85;;;16.50;99.90;;;;;;5052891;28;20489;-76
2022/07/23 04:49:57;;;;;;;34.00;19.47;;;16.50;99.90;;;;;;5052899;28;20429;-74
2022/07/23 04:52:22;;;;;;;30.25;18.15;;;16.60;99.90;;;;;;5052791;28;20408;-75
2022/07/23 04:54:48;;;;;;;28.85;18.00;;;16.60;99.90;;;;;;5052793;28;20389;-74
2022/07/23 04:57:14;;;;;;;28.67;17.90;;;16.50;99.90;;;;;;5052754;28;20753;-76
2022/07/23 04:59:39;;;;;;;26.93;17.93;;;16.60;99.90;;;;;;5053272;28;20454;-75
2022/07/23 05:02:05;;;;;;;27.98;18.15;;;16.60;99.90;;;;;;5052511;28;20401;-75
2022/07/23 05:04:31;;;;;;;32.90;19.08;;;16.60;99.90;;;;;;5052893;28;20389;-75
2022/07/23 05:06:57;;;;;;;29.80;18.60;;;16.60;99.90;;;;;;5051292;28;20378;-75
2022/07/23 05:09:23;;;;;;;30.13;18.67;;;16.60;99.90;;;;;;5052657;28;20393;-76
2022/07/23 05:11:48;;;;;;;29.63;19.33;;;16.60;99.90;;;;;;5051960;28;20477;-76
2022/07/23 05:14:14;;;;;;;27.25;18.35;;;16.60;99.90;;;;;;5052509;28;20460;-77
2022/07/23 05:16:39;;;;;;;27.23;18.35;;;16.70;99.90;;;;;;5052337;28;20432;-75
2022/07/23 05:19:05;;;;;;;31.33;17.33;;;16.90;99.90;;;;;;5051199;28;20762;-76
2022/07/23 05:21:30;;;;;;;24.77;17.30;;;16.90;99.90;;;;;;5052212;28;20490;-76
2022/07/23 05:23:56;;;;;;;30.00;19.17;;;17.00;99.90;;;;;;5052507;28;20401;-75
2022/07/23 05:26:21;;;;;;;29.57;20.03;;;16.90;99.90;;;;;;5052407;28;20416;-75
2022/07/23 05:28:47;;;;;;;30.73;18.50;;;17.00;99.90;;;;;;5052921;28;20749;-75
2022/07/23 05:31:13;;;;;;;33.67;18.53;;;17.10;99.90;;;;;;5051985;28;20378;-76
2022/07/23 05:33:38;;;;;;;27.23;18.13;;;17.10;99.90;;;;;;5052146;28;20447;-75
2022/07/23 05:36:04;;;;;;;25.67;18.10;;;17.00;99.90;;;;;;5052283;28;20389;-75
2022/07/23 05:38:31;;;;;;;33.22;19.00;;;17.10;99.90;;;;;;5051994;28;20460;-75
2022/07/23 05:40:57;;;;;;;31.60;19.02;;;17.20;99.90;;;;;;5052119;28;20866;-76
2022/07/23 05:43:23;;;;;;;31.95;19.10;;;17.40;99.90;;;;;;5058538;28;20408;-76
2022/07/23 05:45:48;;;;;;;34.17;19.88;;;17.50;99.90;;;;;;5058794;28;20431;-75
2022/07/23 05:48:14;;;;;;;31.10;19.93;;;17.60;99.90;;;;;;5054333;28;20389;-76
2022/07/23 05:50:39;;;;;;;28.80;19.67;;;17.80;98.70;;;;;;5052134;28;20470;-76
2022/07/23 05:53:05;;;;;;;29.75;18.92;;;17.90;97.00;;;;;;5051627;28;20409;-76
2022/07/23 05:55:31;;;;;;;32.93;20.17;;;18.00;96.00;;;;;;5051783;28;20396;-75
2022/07/23 05:57:57;;;;;;;31.77;19.27;;;18.20;92.20;;;;;;5051762;28;20460;-76
2022/07/23 06:00:24;;;;;;;27.92;18.50;;;18.10;88.70;;;;;;5051602;28;20927;-76
2022/07/23 06:02:50;;;;;;;31.73;19.45;;;18.10;91.70;;;;;;5051673;28;20433;-76
2022/07/23 06:05:16;;;;;;;32.20;20.52;;;18.10;92.50;;;;;;5050627;28;20425;-76
2022/07/23 06:07:41;;;;;;;33.50;19.80;;;18.10;90.50;;;;;;5057418;28;20422;-75
2022/07/23 06:10:08;;;;;;;32.72;19.98;;;18.10;91.00;;;;;;5065039;28;20377;-75
2022/07/23 06:12:34;;;;;;;31.83;20.13;;;18.20;89.20;;;;;;5065392;28;20484;-76
2022/07/23 06:14:59;;;;;;;32.53;19.13;;;18.10;90.00;;;;;;5064418;28;20388;-75
2022/07/23 06:17:26;;;;;;;29.37;19.07;;;18.10;89.20;;;;;;5063153;28;20731;-74
2022/07/23 06:19:52;;;;;;;34.25;20.80;;;18.10;89.50;;;;;;5055254;28;20421;-75
2022/07/23 06:22:18;;;;;;;33.70;20.67;;;18.20;88.90;;;;;;5056919;28;20405;-76
2022/07/23 06:24:44;;;;;;;31.77;20.60;;;18.20;86.90;;;;;;5058426;28;20401;-76
2022/07/23 06:27:09;;;;;;;33.28;20.83;;;18.40;88.10;;;;;;5060969;28;20412;-76
2022/07/23 06:29:35;;;;;;;35.00;21.77;;;18.50;87.50;;;;;;5062592;28;20420;-76
2022/07/23 06:32:00;;;;;;;40.10;21.40;;;18.50;83.20;;;;;;5061258;28;20388;-76
2022/07/23 06:34:26;;;;;;;35.27;21.80;;;18.40;83.90;;;;;;5061007;28;20742;-77
2022/07/23 06:36:52;;;;;;;32.97;20.60;;;18.50;86.10;;;;;;5058800;28;20428;-76
2022/07/23 06:39:17;;;;;;;43.75;24.17;;;18.60;86.50;;;;;;5055745;28;20393;-76
2022/07/23 06:41:43;;;;;;;44.10;25.63;;;18.70;81.70;;;;;;5050122;28;20378;-75
2022/07/23 06:44:08;;;;;;;46.23;28.20;;;18.70;80.50;;;;;;5044833;28;20419;-76
2022/07/23 06:46:34;;;;;;;44.20;24.00;;;18.60;79.50;;;;;;5042868;28;20869;-76
2022/07/23 06:49:00;;;;;;;31.27;20.85;;;18.70;80.90;;;;;;5037909;28;20455;-76
2022/07/23 06:51:25;;;;;;;40.55;22.70;;;18.70;81.60;;;;;;5050811;28;20460;-76
2022/07/23 06:53:51;;;;;;;36.43;23.23;;;18.80;79.50;;;;;;5042298;28;21001;-75
2022/07/23 06:56:17;;;;;;;40.87;22.60;;;18.90;75.80;;;;;;5044601;28;20385;-75
2022/07/23 06:58:42;;;;;;;33.45;21.95;;;19.00;76.90;;;;;;5039306;28;20733;-73
2022/07/23 07:01:08;;;;;;;37.20;22.00;;;19.00;78.20;;;;;;5043141;28;20781;-72
2022/07/23 07:03:33;;;;;;;38.33;21.47;;;19.00;77.40;;;;;;5045531;28;20548;-75
2022/07/23 07:05:59;;;;;;;41.70;22.17;;;18.90;77.90;;;;;;5037488;28;20870;-76
2022/07/23 07:08:25;;;;;;;34.10;21.58;;;18.90;73.30;;;;;;5035608;28;20814;-76
2022/07/23 07:10:50;;;;;;;40.50;22.20;;;19.00;73.10;;;;;;5031575;28;20740;-76
2022/07/23 07:13:16;;;;;;;36.13;22.00;;;19.10;72.70;;;;;;5048943;28;20480;-76
2022/07/23 07:15:42;;;;;;;39.30;22.13;;;19.10;71.20;;;;;;5050456;28;20389;-77
2022/07/23 07:18:07;;;;;;;36.78;21.65;;;19.10;72.30;;;;;;5050358;28;20385;-76
2022/07/23 07:20:33;;;;;;;41.63;21.88;;;19.10;74.30;;;;;;5050264;28;20390;-77
2022/07/23 07:22:58;;;;;;;44.47;24.40;;;19.10;72.60;;;;;;5049354;28;20405;-76
2022/07/23 07:25:24;;;;;;;41.20;24.30;;;19.20;72.10;;;;;;5031985;28;20390;-75
2022/07/23 07:27:49;;;;;;;52.53;26.17;;;19.20;72.60;;;;;;5041106;28;20907;-75
2022/07/23 07:30:15;;;;;;;43.43;26.60;;;19.10;65.50;;;;;;5037271;28;20838;-76
2022/07/23 07:32:41;;;;;;;47.63;26.30;;;19.20;69.50;;;;;;5045841;28;20426;-75
2022/07/23 07:35:07;;;;;;;43.83;26.67;;;19.20;72.20;;;;;;5032904;28;20922;-76
2022/07/23 07:37:33;;;;;;;45.53;25.95;;;19.40;64.50;;;;;;5038415;28;20397;-75
2022/07/23 07:39:58;;;;;;;48.17;26.10;;;19.50;64.20;;;;;;5053517;28;20438;-75
2022/07/23 07:42:24;;;;;;;42.33;26.43;;;19.40;62.10;;;;;;5053996;28;20969;-75
2022/07/23 07:44:50;;;;;;;43.28;25.65;;;19.40;62.60;;;;;;5037850;28;20533;-74
2022/07/23 07:47:15;;;;;;;46.40;26.98;;;19.20;67.00;;;;;;5045077;28;20487;-75
2022/07/23 07:49:44;;;;;;;47.70;30.63;;;19.20;69.00;;;;;;5067723;22;20538;-73
2022/07/23 07:52:10;;;;;;;53.80;32.90;;;19.40;65.10;;;;;;5054027;28;20449;-72
2022/07/23 07:54:36;;;;;;;48.70;32.50;;;19.60;62.40;;;;;;5052493;28;20873;-73
2022/07/23 07:57:01;;;;;;;67.05;41.40;;;20.00;59.70;;;;;;5053695;28;20382;-74
2022/07/23 07:59:27;;;;;;;72.03;44.17;;;20.60;50.30;;;;;;5053958;28;20391;-73
2022/07/23 08:01:53;;;;;;;64.93;42.92;;;21.00;47.10;;;;;;5056790;28;20885;-75
2022/07/23 08:04:18;;;;;;;59.92;40.22;;;21.20;45.70;;;;;;5056703;28;20388;-74
2022/07/23 08:06:44;;;;;;;55.93;33.97;;;21.40;42.60;;;;;;5057609;28;20405;-76
2022/07/23 08:09:10;;;;;;;55.20;36.70;;;21.10;46.90;;;;;;5058176;28;20788;-78
2022/07/23 08:11:35;;;;;;;58.22;40.63;;;21.10;48.40;;;;;;5054900;28;20382;-76
2022/07/23 08:14:01;;;;;;;75.60;44.22;;;21.10;48.90;;;;;;5054753;28;20749;-73
2022/07/23 08:16:27;;;;;;;63.37;43.50;;;20.80;50.80;;;;;;5053875;28;20393;-73
2022/07/23 08:18:52;;;;;;;63.87;41.60;;;20.70;53.90;;;;;;5053855;28;20385;-73
2022/07/23 08:21:18;;;;;;;55.67;40.65;;;20.50;48.50;;;;;;5053351;28;20393;-72
2022/07/23 08:23:44;;;;;;;58.88;42.13;;;20.30;49.80;;;;;;5052958;28;20421;-74
2022/07/23 08:26:09;;;;;;;54.80;43.03;;;20.40;51.60;;;;;;5053449;28;20393;-74
2022/07/23 08:28:35;;;;;;;55.60;41.10;;;20.40;52.20;;;;;;5052780;28;20411;-73
2022/07/23 08:31:01;;;;;;;59.25;42.17;;;20.40;47.90;;;;;;5054003;28;20385;-77
2022/07/23 08:33:26;;;;;;;53.38;36.47;;;20.50;47.60;;;;;;5053036;28;20793;-75
2022/07/23 08:35:52;;;;;;;48.03;35.58;;;20.60;47.40;;;;;;5054368;28;20428;-75
2022/07/23 08:38:20;;;;;;;43.10;33.45;;;20.90;46.60;;;;;;5053134;28;20480;-74
2022/07/23 08:40:51;;;;;;;45.92;32.50;;;21.00;46.00;;;;;;5052897;28;20390;-74
2022/07/23 08:43:22;;;;;;;43.13;28.50;;;21.00;45.00;;;;;;5053216;28;20413;-74
2022/07/23 08:45:49;;;;;;;36.05;23.77;;;21.00;42.00;;;;;;5052616;28;20373;-76
2022/07/23 08:48:21;;;;;;;38.05;25.13;;;21.00;41.20;;;;;;5053900;28;20886;-76
2022/07/23 08:50:50;;;;;;;39.35;24.73;;;21.00;39.40;;;;;;5053199;28;20397;-75
2022/07/23 08:53:17;;;;;;;38.95;26.88;;;21.00;39.80;;;;;;5054330;28;20428;-76
2022/07/23 08:55:50;;;;;;;37.20;25.63;;;21.00;38.80;;;;;;5053261;28;20388;-75
2022/07/23 08:58:17;;;;;;;40.08;22.38;;;21.10;39.10;;;;;;5053136;28;20386;-74
2022/07/23 09:00:43;;;;;;;32.72;20.27;;;21.20;36.50;;;;;;5052768;28;20976;-74
2022/07/23 09:03:18;;;;;;;27.38;18.42;;;21.20;37.80;;;;;;5053108;28;20494;-75
2022/07/23 09:05:44;;;;;;;24.70;15.57;;;21.10;37.60;;;;;;5053072;28;20377;-75
2022/07/23 09:08:21;;;;;;;23.35;15.73;;;21.10;34.50;;;;;;5051745;28;20785;-74
2022/07/23 09:10:56;;;;;;;28.65;18.10;;;21.10;34.50;;;;;;5053107;28;20472;-74
2022/07/23 09:13:33;;;;;;;24.30;16.30;;;21.30;34.80;;;;;;5053037;28;20483;-76
2022/07/23 09:16:23;;;;;;;21.55;14.77;;;21.40;34.30;;;;;;5054049;28;20904;-73
2022/07/23 09:19:03;;;;;;;24.35;15.95;;;21.50;33.10;;;;;;5053273;28;20419;-74
2022/07/23 09:21:32;;;;;;;25.93;16.80;;;21.50;33.90;;;;;;5052347;28;20392;-74
2022/07/23 09:24:06;;;;;;;20.63;14.95;;;21.60;33.40;;;;;;5053735;28;20417;-76
2022/07/23 09:26:44;;;;;;;23.75;13.25;;;21.70;32.70;;;;;;5052916;28;20686;-74
2022/07/23 09:29:26;;;;;;;16.15;11.15;;;21.80;32.30;;;;;;5053275;28;20518;-75
2022/07/23 09:31:59;;;;;;;14.50;9.63;;;21.90;31.90;;;;;;5052975;28;20465;-75
2022/07/23 09:34:27;;;;;;;15.02;9.38;;;21.80;30.00;;;;;;5051742;28;20384;-77
2022/07/23 09:36:58;;;;;;;14.68;9.40;;;21.70;30.90;;;;;;5052882;28;20373;-74
2022/07/23 09:39:34;;;;;;;16.13;10.68;;;21.70;31.80;;;;;;5052290;28;20381;-80
2022/07/23 09:42:16;;;;;;;11.80;8.60;;;21.70;29.80;;;;;;5037679;28;20465;-74
2022/07/23 09:44:43;;;;;;;14.50;9.27;;;21.80;29.70;;;;;;5056773;28;20516;-75
2022/07/23 09:47:09;;;;;;;15.63;8.70;;;22.20;28.70;;;;;;5057008;28;20390;-75
2022/07/23 09:49:34;;;;;;;13.40;9.55;;;22.40;27.80;;;;;;5055465;28;20473;-75
2022/07/23 09:52:01;;;;;;;15.93;7.47;;;22.40;27.30;;;;;;5058688;28;20397;-75
2022/07/23 09:54:33;;;;;;;12.20;8.07;;;22.30;27.90;;;;;;5054246;28;20389;-75
2022/07/23 09:57:08;;;;;;;13.93;8.20;;;22.10;26.00;;;;;;5053788;28;20411;-75
2022/07/23 09:59:37;;;;;;;14.25;7.07;;;22.10;27.10;;;;;;5043910;28;20395;-75
2022/07/23 10:02:05;;;;;;;14.05;8.40;;;22.10;26.50;;;;;;5067212;28;20445;-75
2022/07/23 10:04:32;;;;;;;20.70;8.80;;;22.10;26.30;;;;;;5052896;28;20467;-73
2022/07/23 10:07:01;;;;;;;10.68;7.82;;;22.20;27.50;;;;;;5051894;28;20385;-76
2022/07/23 10:09:36;;;;;;;12.93;8.60;;;22.40;27.10;;;;;;5052356;28;20389;-75
2022/07/23 10:12:48;;;;;;;11.45;7.78;;;22.50;25.20;;;;;;5053478;28;20381;-78
2022/07/23 10:14:53;;;;;;;13.68;7.30;;;22.60;25.40;;;;;;5063494;28;20402;-72
2022/07/23 10:17:19;;;;;;;12.30;7.70;;;22.80;25.30;;;;;;5058549;28;20893;-72
2022/07/23 10:19:44;;;;;;;12.53;7.23;;;22.90;24.00;;;;;;5051237;28;20397;-72
2022/07/23 10:22:33;;;;;;;9.55;7.00;;;23.10;23.80;;;;;;5050012;28;20409;-74
2022/07/23 10:25:50;;;;;;;18.50;7.28;;;23.30;22.50;;;;;;5049964;28;20389;-74
2022/07/23 10:28:18;;;;;;;15.57;7.40;;;23.30;22.70;;;;;;5034205;28;20397;-73
2022/07/23 10:31:03;;;;;;;13.52;6.82;;;23.20;22.50;;;;;;5053216;28;20381;-74
2022/07/23 10:33:50;;;;;;;12.27;6.25;;;23.10;21.20;;;;;;5054356;28;20397;-74
2022/07/23 10:36:23;;;;;;;11.30;7.40;;;23.20;20.30;;;;;;5052916;28;20393;-73
2022/07/23 10:39:05;;;;;;;12.52;6.55;;;23.10;20.20;;;;;;5052652;28;20936;-72
2022/07/23 10:41:39;;;;;;;13.85;6.60;;;23.20;21.10;;;;;;5056993;28;20419;-75
2022/07/23 10:44:10;;;;;;;13.38;6.40;;;23.60;19.70;;;;;;5063498;28;20774;-75
2022/07/23 10:46:40;;;;;;;12.27;7.22;;;23.60;20.50;;;;;;5061157;28;20900;-75
2022/07/23 10:49:29;;;;;;;13.53;7.30;;;23.70;21.30;;;;;;5059622;28;20417;-73
2022/07/23 10:52:13;;;;;;;12.35;7.00;;;23.80;19.20;;;;;;5052496;28;20394;-75
2022/07/23 10:54:43;;;;;;;12.60;6.10;;;23.80;18.70;;;;;;5051649;28;20767;-73
2022/07/23 10:57:11;;;;;;;10.77;5.40;;;23.90;18.30;;;;;;5053553;28;20404;-73
2022/07/23 11:00:14;;;;;;;11.32;6.70;;;24.10;18.10;;;;;;5054554;28;20452;-75
2022/07/23 11:02:43;;;;;;;11.02;6.47;;;23.90;17.80;;;;;;5053422;28;20474;-71
2022/07/23 11:05:11;;;;;;;12.13;6.60;;;23.80;18.90;;;;;;5053655;28;20473;-71
2022/07/23 11:08:02;;;;;;;12.38;6.80;;;24.00;18.40;;;;;;5053403;28;20392;-73
2022/07/23 11:10:38;;;;;;;11.50;6.43;;;24.40;17.70;;;;;;5058051;28;20384;-74
2022/07/23 11:13:22;;;;;;;10.65;6.90;;;24.40;16.90;;;;;;5058734;28;20397;-72
2022/07/23 11:16:08;;;;;;;11.40;6.55;;;24.10;18.10;;;;;;5058018;28;20393;-73
2022/07/23 11:18:55;;;;;;;14.63;7.55;;;24.10;19.30;;;;;;5049179;28;20401;-73
2022/07/23 11:21:26;;;;;;;11.13;7.73;;;24.00;18.20;;;;;;5056992;28;20401;-74
2022/07/23 11:23:58;;;;;;;10.50;5.97;;;24.10;17.90;;;;;;5056249;28;20409;-74
2022/07/23 11:26:54;;;;;;;8.50;5.93;;;24.30;16.70;;;;;;5057863;28;20413;-74
2022/07/23 11:29:28;;;;;;;7.85;4.38;;;24.40;15.90;;;;;;5056386;28;20450;-75
2022/07/23 11:31:59;;;;;;;8.98;4.57;;;24.70;15.50;;;;;;5058995;28;20397;-73
2022/07/23 11:34:33;;;;;;;10.20;5.00;;;24.80;15.50;;;;;;5063384;28;20377;-73
2022/07/23 11:37:01;;;;;;;9.63;6.00;;;25.00;16.10;;;;;;5064563;28;20391;-75
2022/07/23 11:39:28;;;;;;;13.02;6.47;;;24.60;16.30;;;;;;5061849;28;20389;-74
2022/07/23 11:41:54;;;;;;;12.15;7.30;;;24.40;16.60;;;;;;5060903;28;20373;-74
2022/07/23 11:44:31;;;;;;;14.73;7.75;;;24.00;17.10;;;;;;5059176;28;20393;-74
2022/07/23 11:47:03;;;;;;;11.35;6.70;;;23.80;19.00;;;;;;5058201;28;20454;-75
2022/07/23 11:49:29;;;;;;;12.95;7.50;;;23.90;18.70;;;;;;5058342;28;20827;-75
2022/07/23 11:52:08;;;;;;;11.80;7.55;;;24.20;17.30;;;;;;5058794;28;20873;-75
2022/07/23 11:54:36;;;;;;;11.70;7.13;;;24.30;17.50;;;;;;5059681;28;20377;-75
2022/07/23 11:57:03;;;;;;;10.52;7.47;;;24.40;18.10;;;;;;5059780;28;20373;-74
2022/07/23 11:59:32;;;;;;;12.03;8.27;;;24.50;16.50;;;;;;5059581;28;20444;-74
2022/07/23 12:02:04;;;;;;;13.35;7.55;;;24.70;16.00;;;;;;5059389;28;20400;-72
2022/07/23 12:04:39;;;;;;;12.68;7.40;;;24.90;16.40;;;;;;5060389;28;20391;-75
2022/07/23 12:07:38;;;;;;;13.15;7.38;;;25.00;16.20;;;;;;5059396;28;20385;-75
2022/07/23 12:10:29;;;;;;;12.83;6.70;;;25.10;16.10;;;;;;5061011;28;20401;-73
2022/07/23 12:12:59;;;;;;;11.02;7.05;;;24.90;14.90;;;;;;5057274;28;20472;-74
2022/07/23 12:15:33;;;;;;;10.10;6.82;;;24.50;16.90;;;;;;5057159;28;20386;-73
2022/07/23 12:18:01;;;;;;;9.82;5.55;;;24.70;16.70;;;;;;5057870;28;20749;-74
2022/07/23 12:20:31;;;;;;;10.40;5.20;;;24.90;14.90;;;;;;5054421;28;20382;-74
2022/07/23 12:22:59;;;;;;;7.50;4.80;;;24.80;15.10;;;;;;5054382;28;20413;-72
2022/07/23 12:25:29;;;;;;;6.60;4.80;;;25.00;13.70;;;;;;5054019;28;20730;-74
2022/07/23 12:28:07;;;;;;;9.88;5.70;;;25.00;13.00;;;;;;5054121;28;20384;-75
2022/07/23 12:30:41;;;;;;;9.45;5.30;;;25.10;14.60;;;;;;5054397;28;20405;-75
2022/07/23 12:33:08;;;;;;;8.52;5.45;;;25.10;14.30;;;;;;5054224;28;20460;-73
2022/07/23 12:35:44;;;;;;;10.30;6.00;;;25.10;13.80;;;;;;5054740;28;20476;-74
2022/07/23 12:38:12;;;;;;;8.70;5.20;;;24.90;14.20;;;;;;5060507;28;20380;-72
2022/07/23 12:40:55;;;;;;;6.90;4.70;;;24.90;14.90;;;;;;5059616;28;20385;-74